sensor_id;sensor_type;location;lat;lon;timestamp;P1;durP1;ratioP1;P2;durP2;ratioP2
39266;SDS011;24967;51.154;13.812;2023-05-10T00:01:58;2.45;;;1.60;;
39266;SDS011;24967;51.154;13.812;2023-05-10T00:04:24;1.85;;;1.75;;
39266;SDS011;24967;51.154;13.812;2023-05-10T00:06:52;1.75;;;1.65;;
39266;SDS011;24967;51.154;13.812;2023-05-10T00:09:20;2.42;;;1.73;;
39266;SDS011;24967;51.154;13.812;2023-05-10T00:11:46;1.67;;;1.58;;
39266;SDS011;24967;51.154;13.812;2023-05-10T00:14:13;3.63;;;1.85;;
39266;SDS011;24967;51.154;13.812;2023-05-10T00:16:39;1.95;;;1.70;;
39266;SDS011;24967;51.154;13.812;2023-05-10T00:19:06;2.67;;;1.83;;
39266;SDS011;24967;51.154;13.812;2023-05-10T00:21:32;5.10;;;2.00;;
39266;SDS011;24967;51.154;13.812;2023-05-10T00:23:59;1.95;;;1.70;;
39266;SDS011;24967;51.154;13.812;2023-05-10T00:26:27;1.98;;;1.88;;
39266;SDS011;24967;51.154;13.812;2023-05-10T00:28:53;2.03;;;1.90;;
39266;SDS011;24967;51.154;13.812;2023-05-10T00:31:19;2.20;;;1.75;;
39266;SDS011;24967;51.154;13.812;2023-05-10T00:33:46;1.83;;;1.73;;
39266;SDS011;24967;51.154;13.812;2023-05-10T00:36:12;1.90;;;1.80;;
39266;SDS011;24967;51.154;13.812;2023-05-10T00:38:39;3.40;;;1.50;;
39266;SDS011;24967;51.154;13.812;2023-05-10T00:41:05;1.70;;;1.60;;
39266;SDS011;24967;51.154;13.812;2023-05-10T00:43:33;2.50;;;1.73;;
39266;SDS011;24967;51.154;13.812;2023-05-10T00:46:00;2.72;;;1.45;;
39266;SDS011;24967;51.154;13.812;2023-05-10T00:48:26;1.95;;;1.83;;
39266;SDS011;24967;51.154;13.812;2023-05-10T00:50:54;2.17;;;1.55;;
39266;SDS011;24967;51.154;13.812;2023-05-10T00:53:21;3.00;;;1.50;;
39266;SDS011;24967;51.154;13.812;2023-05-10T00:55:47;1.98;;;1.63;;
39266;SDS011;24967;51.154;13.812;2023-05-10T00:58:14;2.85;;;1.60;;
39266;SDS011;24967;51.154;13.812;2023-05-10T01:00:42;1.70;;;1.60;;
39266;SDS011;24967;51.154;13.812;2023-05-10T01:03:12;3.35;;;1.63;;
39266;SDS011;24967;51.154;13.812;2023-05-10T01:05:39;1.88;;;1.50;;
39266;SDS011;24967;51.154;13.812;2023-05-10T01:08:06;1.92;;;1.80;;
39266;SDS011;24967;51.154;13.812;2023-05-10T01:10:33;1.80;;;1.70;;
39266;SDS011;24967;51.154;13.812;2023-05-10T01:13:00;3.28;;;1.67;;
39266;SDS011;24967;51.154;13.812;2023-05-10T01:15:27;2.40;;;1.65;;
39266;SDS011;24967;51.154;13.812;2023-05-10T01:17:55;1.90;;;1.80;;
39266;SDS011;24967;51.154;13.812;2023-05-10T01:20:22;2.05;;;1.50;;
39266;SDS011;24967;51.154;13.812;2023-05-10T01:22:58;1.70;;;1.48;;
39266;SDS011;24967;51.154;13.812;2023-05-10T01:28:44;1.60;;;1.50;;
39266;SDS011;24967;51.154;13.812;2023-05-10T01:31:33;1.70;;;1.60;;
39266;SDS011;24967;51.154;13.812;2023-05-10T01:34:25;2.55;;;1.80;;
39266;SDS011;24967;51.154;13.812;2023-05-10T01:36:58;1.75;;;1.63;;
39266;SDS011;24967;51.154;13.812;2023-05-10T01:39:30;3.25;;;1.90;;
39266;SDS011;24967;51.154;13.812;2023-05-10T01:42:04;3.10;;;2.00;;
39266;SDS011;24967;51.154;13.812;2023-05-10T01:44:35;1.55;;;1.45;;
39266;SDS011;24967;51.154;13.812;2023-05-10T01:49:37;1.90;;;1.70;;
39266;SDS011;24967;51.154;13.812;2023-05-10T01:52:08;5.78;;;2.00;;
39266;SDS011;24967;51.154;13.812;2023-05-10T01:54:38;1.52;;;1.42;;
39266;SDS011;24967;51.154;13.812;2023-05-10T01:57:07;1.80;;;1.70;;
39266;SDS011;24967;51.154;13.812;2023-05-10T01:59:37;2.30;;;2.13;;
39266;SDS011;24967;51.154;13.812;2023-05-10T02:02:07;1.60;;;1.50;;
39266;SDS011;24967;51.154;13.812;2023-05-10T02:04:38;5.43;;;1.83;;
39266;SDS011;24967;51.154;13.812;2023-05-10T02:07:06;2.30;;;1.55;;
39266;SDS011;24967;51.154;13.812;2023-05-10T02:09:34;3.40;;;1.80;;
39266;SDS011;24967;51.154;13.812;2023-05-10T02:12:03;1.85;;;1.63;;
39266;SDS011;24967;51.154;13.812;2023-05-10T02:14:34;4.77;;;1.90;;
39266;SDS011;24967;51.154;13.812;2023-05-10T02:17:03;1.90;;;1.65;;
39266;SDS011;24967;51.154;13.812;2023-05-10T02:19:31;1.90;;;1.80;;
39266;SDS011;24967;51.154;13.812;2023-05-10T02:22:00;3.70;;;1.88;;
39266;SDS011;24967;51.154;13.812;2023-05-10T02:24:27;1.50;;;1.40;;
39266;SDS011;24967;51.154;13.812;2023-05-10T02:26:55;1.60;;;1.50;;
39266;SDS011;24967;51.154;13.812;2023-05-10T02:29:22;1.90;;;1.80;;
39266;SDS011;24967;51.154;13.812;2023-05-10T02:31:51;3.35;;;1.60;;
39266;SDS011;24967;51.154;13.812;2023-05-10T02:34:19;3.88;;;1.70;;
39266;SDS011;24967;51.154;13.812;2023-05-10T02:36:47;1.90;;;1.80;;
39266;SDS011;24967;51.154;13.812;2023-05-10T02:39:17;1.98;;;1.80;;
39266;SDS011;24967;51.154;13.812;2023-05-10T02:41:46;3.13;;;2.83;;
39266;SDS011;24967;51.154;13.812;2023-05-10T02:44:15;2.20;;;2.00;;
39266;SDS011;24967;51.154;13.812;2023-05-10T02:46:45;2.00;;;1.85;;
39266;SDS011;24967;51.154;13.812;2023-05-10T02:49:11;1.75;;;1.65;;
39266;SDS011;24967;51.154;13.812;2023-05-10T02:51:40;2.00;;;1.90;;
39266;SDS011;24967;51.154;13.812;2023-05-10T02:54:10;3.65;;;1.77;;
39266;SDS011;24967;51.154;13.812;2023-05-10T02:56:42;1.92;;;1.83;;
39266;SDS011;24967;51.154;13.812;2023-05-10T02:59:12;2.55;;;2.35;;
39266;SDS011;24967;51.154;13.812;2023-05-10T03:01:39;1.90;;;1.80;;
39266;SDS011;24967;51.154;13.812;2023-05-10T03:04:05;1.65;;;1.55;;
39266;SDS011;24967;51.154;13.812;2023-05-10T03:06:32;2.33;;;2.10;;
39266;SDS011;24967;51.154;13.812;2023-05-10T03:08:59;1.67;;;1.58;;
39266;SDS011;24967;51.154;13.812;2023-05-10T03:11:32;3.13;;;1.50;;
39266;SDS011;24967;51.154;13.812;2023-05-10T03:14:16;1.95;;;1.75;;
39266;SDS011;24967;51.154;13.812;2023-05-10T03:16:56;3.05;;;1.60;;
39266;SDS011;24967;51.154;13.812;2023-05-10T03:19:35;1.60;;;1.50;;
39266;SDS011;24967;51.154;13.812;2023-05-10T03:22:08;3.13;;;2.08;;
39266;SDS011;24967;51.154;13.812;2023-05-10T03:24:36;2.88;;;1.83;;
39266;SDS011;24967;51.154;13.812;2023-05-10T03:27:08;1.73;;;1.63;;
39266;SDS011;24967;51.154;13.812;2023-05-10T03:29:36;1.85;;;1.75;;
39266;SDS011;24967;51.154;13.812;2023-05-10T03:32:04;1.90;;;1.80;;
39266;SDS011;24967;51.154;13.812;2023-05-10T03:34:31;1.83;;;1.73;;
39266;SDS011;24967;51.154;13.812;2023-05-10T03:36:57;2.35;;;1.60;;
39266;SDS011;24967;51.154;13.812;2023-05-10T03:39:24;3.28;;;1.42;;
39266;SDS011;24967;51.154;13.812;2023-05-10T03:41:50;3.40;;;2.05;;
39266;SDS011;24967;51.154;13.812;2023-05-10T03:44:18;1.80;;;1.70;;
39266;SDS011;24967;51.154;13.812;2023-05-10T03:46:44;4.03;;;1.83;;
39266;SDS011;24967;51.154;13.812;2023-05-10T03:49:11;3.22;;;2.00;;
39266;SDS011;24967;51.154;13.812;2023-05-10T03:51:38;2.22;;;1.55;;
39266;SDS011;24967;51.154;13.812;2023-05-10T03:54:04;1.60;;;1.50;;
39266;SDS011;24967;51.154;13.812;2023-05-10T03:56:31;2.25;;;2.00;;
39266;SDS011;24967;51.154;13.812;2023-05-10T03:58:57;3.33;;;2.00;;
39266;SDS011;24967;51.154;13.812;2023-05-10T04:01:25;1.83;;;1.73;;
39266;SDS011;24967;51.154;13.812;2023-05-10T04:03:51;2.20;;;1.98;;
39266;SDS011;24967;51.154;13.812;2023-05-10T04:06:18;3.70;;;1.98;;
39266;SDS011;24967;51.154;13.812;2023-05-10T04:08:44;2.58;;;1.70;;
39266;SDS011;24967;51.154;13.812;2023-05-10T04:11:11;1.90;;;1.80;;
39266;SDS011;24967;51.154;13.812;2023-05-10T04:13:38;3.60;;;1.80;;
39266;SDS011;24967;51.154;13.812;2023-05-10T04:16:05;1.92;;;1.70;;
39266;SDS011;24967;51.154;13.812;2023-05-10T04:18:33;1.52;;;1.45;;
39266;SDS011;24967;51.154;13.812;2023-05-10T04:20:59;1.67;;;1.58;;
39266;SDS011;24967;51.154;13.812;2023-05-10T04:23:26;1.70;;;1.58;;
39266;SDS011;24967;51.154;13.812;2023-05-10T04:25:53;2.28;;;1.60;;
39266;SDS011;24967;51.154;13.812;2023-05-10T04:28:25;3.58;;;1.75;;
39266;SDS011;24967;51.154;13.812;2023-05-10T04:30:52;4.60;;;2.05;;
39266;SDS011;24967;51.154;13.812;2023-05-10T04:33:18;1.67;;;1.48;;
39266;SDS011;24967;51.154;13.812;2023-05-10T04:35:46;1.60;;;1.50;;
39266;SDS011;24967;51.154;13.812;2023-05-10T04:38:12;2.15;;;1.70;;
39266;SDS011;24967;51.154;13.812;2023-05-10T04:40:39;1.58;;;1.48;;
39266;SDS011;24967;51.154;13.812;2023-05-10T04:43:05;1.55;;;1.45;;
39266;SDS011;24967;51.154;13.812;2023-05-10T04:45:31;3.17;;;1.67;;
39266;SDS011;24967;51.154;13.812;2023-05-10T04:47:58;1.77;;;1.60;;
39266;SDS011;24967;51.154;13.812;2023-05-10T04:50:24;1.77;;;1.67;;
39266;SDS011;24967;51.154;13.812;2023-05-10T04:52:52;1.92;;;1.83;;
39266;SDS011;24967;51.154;13.812;2023-05-10T04:55:19;2.78;;;1.83;;
39266;SDS011;24967;51.154;13.812;2023-05-10T04:57:45;1.67;;;1.58;;
39266;SDS011;24967;51.154;13.812;2023-05-10T05:00:12;2.17;;;1.70;;
39266;SDS011;24967;51.154;13.812;2023-05-10T05:02:41;2.47;;;2.03;;
39266;SDS011;24967;51.154;13.812;2023-05-10T05:05:08;1.73;;;1.63;;
39266;SDS011;24967;51.154;13.812;2023-05-10T05:07:35;1.95;;;1.40;;
39266;SDS011;24967;51.154;13.812;2023-05-10T05:10:04;1.98;;;1.67;;
39266;SDS011;24967;51.154;13.812;2023-05-10T05:12:31;1.67;;;1.58;;
39266;SDS011;24967;51.154;13.812;2023-05-10T05:14:57;3.08;;;1.92;;
39266;SDS011;24967;51.154;13.812;2023-05-10T05:17:24;1.70;;;1.50;;
39266;SDS011;24967;51.154;13.812;2023-05-10T05:19:50;2.45;;;1.77;;
39266;SDS011;24967;51.154;13.812;2023-05-10T05:22:17;2.00;;;1.90;;
39266;SDS011;24967;51.154;13.812;2023-05-10T05:24:44;3.42;;;1.80;;
39266;SDS011;24967;51.154;13.812;2023-05-10T05:27:12;2.67;;;1.65;;
39266;SDS011;24967;51.154;13.812;2023-05-10T05:29:38;1.92;;;1.70;;
39266;SDS011;24967;51.154;13.812;2023-05-10T05:32:05;1.60;;;1.50;;
39266;SDS011;24967;51.154;13.812;2023-05-10T05:34:33;1.77;;;1.55;;
39266;SDS011;24967;51.154;13.812;2023-05-10T05:36:59;2.47;;;1.63;;
39266;SDS011;24967;51.154;13.812;2023-05-10T05:39:25;1.55;;;1.42;;
39266;SDS011;24967;51.154;13.812;2023-05-10T05:41:52;2.45;;;1.50;;
39266;SDS011;24967;51.154;13.812;2023-05-10T05:44:20;1.73;;;1.63;;
39266;SDS011;24967;51.154;13.812;2023-05-10T05:46:46;1.88;;;1.55;;
39266;SDS011;24967;51.154;13.812;2023-05-10T05:49:12;2.92;;;1.50;;
39266;SDS011;24967;51.154;13.812;2023-05-10T05:51:39;2.42;;;1.50;;
39266;SDS011;24967;51.154;13.812;2023-05-10T05:54:05;1.67;;;1.58;;
39266;SDS011;24967;51.154;13.812;2023-05-10T05:56:32;4.15;;;1.40;;
39266;SDS011;24967;51.154;13.812;2023-05-10T05:58:58;1.52;;;1.42;;
39266;SDS011;24967;51.154;13.812;2023-05-10T06:01:26;1.40;;;1.30;;
39266;SDS011;24967;51.154;13.812;2023-05-10T06:03:52;3.22;;;1.40;;
39266;SDS011;24967;51.154;13.812;2023-05-10T06:06:19;3.22;;;1.40;;
39266;SDS011;24967;51.154;13.812;2023-05-10T06:08:45;2.20;;;1.58;;
39266;SDS011;24967;51.154;13.812;2023-05-10T06:11:11;2.95;;;1.40;;
39266;SDS011;24967;51.154;13.812;2023-05-10T06:13:38;2.50;;;1.27;;
39266;SDS011;24967;51.154;13.812;2023-05-10T06:16:04;2.25;;;1.50;;
39266;SDS011;24967;51.154;13.812;2023-05-10T06:18:33;2.90;;;1.33;;
39266;SDS011;24967;51.154;13.812;2023-05-10T06:20:59;3.38;;;1.35;;
39266;SDS011;24967;51.154;13.812;2023-05-10T06:23:26;2.15;;;1.40;;
39266;SDS011;24967;51.154;13.812;2023-05-10T06:25:52;2.38;;;1.58;;
39266;SDS011;24967;51.154;13.812;2023-05-10T06:28:19;3.90;;;1.70;;
39266;SDS011;24967;51.154;13.812;2023-05-10T06:30:45;2.95;;;1.77;;
39266;SDS011;24967;51.154;13.812;2023-05-10T06:33:11;2.85;;;1.52;;
39266;SDS011;24967;51.154;13.812;2023-05-10T06:35:39;1.60;;;1.50;;
39266;SDS011;24967;51.154;13.812;2023-05-10T06:38:05;1.85;;;1.38;;
39266;SDS011;24967;51.154;13.812;2023-05-10T06:40:32;2.03;;;1.30;;
39266;SDS011;24967;51.154;13.812;2023-05-10T06:42:58;2.65;;;1.55;;
39266;SDS011;24967;51.154;13.812;2023-05-10T06:45:25;1.50;;;1.38;;
39266;SDS011;24967;51.154;13.812;2023-05-10T06:47:51;1.40;;;1.30;;
39266;SDS011;24967;51.154;13.812;2023-05-10T06:50:18;1.30;;;1.20;;
39266;SDS011;24967;51.154;13.812;2023-05-10T06:52:45;1.98;;;1.58;;
39266;SDS011;24967;51.154;13.812;2023-05-10T06:55:12;2.45;;;1.60;;
39266;SDS011;24967;51.154;13.812;2023-05-10T06:57:38;2.50;;;1.60;;
39266;SDS011;24967;51.154;13.812;2023-05-10T07:00:05;1.42;;;1.33;;
39266;SDS011;24967;51.154;13.812;2023-05-10T07:02:34;1.65;;;1.55;;
39266;SDS011;24967;51.154;13.812;2023-05-10T07:05:01;1.73;;;1.63;;
39266;SDS011;24967;51.154;13.812;2023-05-10T07:07:27;2.03;;;1.40;;
39266;SDS011;24967;51.154;13.812;2023-05-10T07:09:55;1.38;;;1.30;;
39266;SDS011;24967;51.154;13.812;2023-05-10T07:12:22;2.47;;;1.40;;
39266;SDS011;24967;51.154;13.812;2023-05-10T07:14:49;1.65;;;1.55;;
39266;SDS011;24967;51.154;13.812;2023-05-10T07:17:15;1.33;;;1.25;;
39266;SDS011;24967;51.154;13.812;2023-05-10T07:19:41;1.50;;;1.40;;
39266;SDS011;24967;51.154;13.812;2023-05-10T07:22:08;1.55;;;1.40;;
39266;SDS011;24967;51.154;13.812;2023-05-10T07:24:34;1.63;;;1.52;;
39266;SDS011;24967;51.154;13.812;2023-05-10T07:27:02;2.30;;;1.70;;
39266;SDS011;24967;51.154;13.812;2023-05-10T07:29:29;2.10;;;1.90;;
39266;SDS011;24967;51.154;13.812;2023-05-10T07:31:55;2.22;;;1.40;;
39266;SDS011;24967;51.154;13.812;2023-05-10T07:34:22;3.05;;;1.30;;
39266;SDS011;24967;51.154;13.812;2023-05-10T07:36:48;1.95;;;1.60;;
39266;SDS011;24967;51.154;13.812;2023-05-10T07:39:15;2.78;;;1.52;;
39266;SDS011;24967;51.154;13.812;2023-05-10T07:41:41;1.63;;;1.52;;
39266;SDS011;24967;51.154;13.812;2023-05-10T07:44:09;1.75;;;1.60;;
39266;SDS011;24967;51.154;13.812;2023-05-10T07:46:36;2.00;;;1.90;;
39266;SDS011;24967;51.154;13.812;2023-05-10T07:49:02;1.92;;;1.40;;
39266;SDS011;24967;51.154;13.812;2023-05-10T07:51:28;1.70;;;1.60;;
39266;SDS011;24967;51.154;13.812;2023-05-10T07:53:55;1.92;;;1.73;;
39266;SDS011;24967;51.154;13.812;2023-05-10T07:56:23;1.52;;;1.42;;
39266;SDS011;24967;51.154;13.812;2023-05-10T07:58:52;3.08;;;2.25;;
39266;SDS011;24967;51.154;13.812;2023-05-10T08:01:20;2.83;;;1.77;;
39266;SDS011;24967;51.154;13.812;2023-05-10T08:03:46;4.20;;;1.50;;
39266;SDS011;24967;51.154;13.812;2023-05-10T08:06:13;2.05;;;1.95;;
39266;SDS011;24967;51.154;13.812;2023-05-10T08:08:40;2.85;;;1.90;;
39266;SDS011;24967;51.154;13.812;2023-05-10T08:11:07;2.88;;;1.73;;
39266;SDS011;24967;51.154;13.812;2023-05-10T08:13:33;1.67;;;1.55;;
39266;SDS011;24967;51.154;13.812;2023-05-10T08:15:59;3.58;;;1.85;;
39266;SDS011;24967;51.154;13.812;2023-05-10T08:18:27;6.05;;;2.00;;
39266;SDS011;24967;51.154;13.812;2023-05-10T08:20:54;1.70;;;1.60;;
39266;SDS011;24967;51.154;13.812;2023-05-10T08:23:20;2.17;;;1.80;;
39266;SDS011;24967;51.154;13.812;2023-05-10T08:25:47;3.58;;;1.67;;
39266;SDS011;24967;51.154;13.812;2023-05-10T08:28:13;1.98;;;1.80;;
39266;SDS011;24967;51.154;13.812;2023-05-10T08:30:40;1.75;;;1.60;;
39266;SDS011;24967;51.154;13.812;2023-05-10T08:33:06;1.90;;;1.80;;
39266;SDS011;24967;51.154;13.812;2023-05-10T08:35:34;2.30;;;2.08;;
39266;SDS011;24967;51.154;13.812;2023-05-10T08:38:00;1.88;;;1.52;;
39266;SDS011;24967;51.154;13.812;2023-05-10T08:40:27;1.73;;;1.45;;
39266;SDS011;24967;51.154;13.812;2023-05-10T08:42:55;1.95;;;1.80;;
39266;SDS011;24967;51.154;13.812;2023-05-10T08:45:26;2.15;;;2.05;;
39266;SDS011;24967;51.154;13.812;2023-05-10T08:47:57;3.58;;;2.05;;
39266;SDS011;24967;51.154;13.812;2023-05-10T08:50:27;2.85;;;1.60;;
39266;SDS011;24967;51.154;13.812;2023-05-10T08:52:57;2.35;;;1.88;;
39266;SDS011;24967;51.154;13.812;2023-05-10T08:55:26;2.95;;;1.80;;
39266;SDS011;24967;51.154;13.812;2023-05-10T08:58:09;2.92;;;1.90;;
39266;SDS011;24967;51.154;13.812;2023-05-10T09:00:36;1.95;;;1.85;;
39266;SDS011;24967;51.154;13.812;2023-05-10T09:03:03;1.90;;;1.80;;
39266;SDS011;24967;51.154;13.812;2023-05-10T09:05:30;1.70;;;1.60;;
39266;SDS011;24967;51.154;13.812;2023-05-10T09:07:59;1.80;;;1.70;;
39266;SDS011;24967;51.154;13.812;2023-05-10T09:10:25;1.77;;;1.65;;
39266;SDS011;24967;51.154;13.812;2023-05-10T09:12:52;1.73;;;1.63;;
39266;SDS011;24967;51.154;13.812;2023-05-10T09:15:21;1.85;;;1.70;;
39266;SDS011;24967;51.154;13.812;2023-05-10T09:17:48;2.53;;;1.67;;
39266;SDS011;24967;51.154;13.812;2023-05-10T09:20:15;2.08;;;1.80;;
39266;SDS011;24967;51.154;13.812;2023-05-10T09:22:43;1.88;;;1.60;;
39266;SDS011;24967;51.154;13.812;2023-05-10T09:25:12;2.92;;;1.88;;
39266;SDS011;24967;51.154;13.812;2023-05-10T09:27:40;1.80;;;1.70;;
39266;SDS011;24967;51.154;13.812;2023-05-10T09:30:10;1.83;;;1.60;;
39266;SDS011;24967;51.154;13.812;2023-05-10T09:35:08;1.48;;;1.38;;
39266;SDS011;24967;51.154;13.812;2023-05-10T09:37:35;2.00;;;1.85;;
39266;SDS011;24967;51.154;13.812;2023-05-10T09:40:04;2.05;;;1.90;;
39266;SDS011;24967;51.154;13.812;2023-05-10T09:42:33;2.92;;;1.60;;
39266;SDS011;24967;51.154;13.812;2023-05-10T09:45:01;1.80;;;1.70;;
39266;SDS011;24967;51.154;13.812;2023-05-10T09:47:29;1.85;;;1.75;;
39266;SDS011;24967;51.154;13.812;2023-05-10T09:49:58;2.55;;;1.85;;
39266;SDS011;24967;51.154;13.812;2023-05-10T09:52:28;2.00;;;1.90;;
39266;SDS011;24967;51.154;13.812;2023-05-10T09:54:55;2.00;;;1.77;;
39266;SDS011;24967;51.154;13.812;2023-05-10T09:57:23;3.95;;;2.00;;
39266;SDS011;24967;51.154;13.812;2023-05-10T09:59:51;1.92;;;1.83;;
39266;SDS011;24967;51.154;13.812;2023-05-10T10:02:19;1.80;;;1.33;;
39266;SDS011;24967;51.154;13.812;2023-05-10T10:04:45;2.10;;;1.90;;
39266;SDS011;24967;51.154;13.812;2023-05-10T10:07:17;2.47;;;1.52;;
39266;SDS011;24967;51.154;13.812;2023-05-10T10:09:49;2.25;;;2.00;;
39266;SDS011;24967;51.154;13.812;2023-05-10T10:12:15;1.85;;;1.75;;
39266;SDS011;24967;51.154;13.812;2023-05-10T10:14:42;2.15;;;2.03;;
39266;SDS011;24967;51.154;13.812;2023-05-10T10:17:10;1.95;;;1.85;;
39266;SDS011;24967;51.154;13.812;2023-05-10T10:19:38;2.22;;;2.00;;
39266;SDS011;24967;51.154;13.812;2023-05-10T10:22:05;2.30;;;2.15;;
39266;SDS011;24967;51.154;13.812;2023-05-10T10:24:31;1.80;;;1.70;;
39266;SDS011;24967;51.154;13.812;2023-05-10T10:26:59;3.10;;;2.03;;
39266;SDS011;24967;51.154;13.812;2023-05-10T10:29:35;2.15;;;1.95;;
39266;SDS011;24967;51.154;13.812;2023-05-10T10:32:08;2.20;;;1.92;;
39266;SDS011;24967;51.154;13.812;2023-05-10T10:34:46;5.20;;;2.05;;
39266;SDS011;24967;51.154;13.812;2023-05-10T10:37:13;2.60;;;2.50;;
39266;SDS011;24967;51.154;13.812;2023-05-10T10:39:39;2.55;;;1.73;;
39266;SDS011;24967;51.154;13.812;2023-05-10T10:42:06;1.75;;;1.75;;
39266;SDS011;24967;51.154;13.812;2023-05-10T10:44:33;2.22;;;2.00;;
39266;SDS011;24967;51.154;13.812;2023-05-10T10:47:23;3.35;;;2.20;;
39266;SDS011;24967;51.154;13.812;2023-05-10T10:50:01;3.10;;;2.50;;
39266;SDS011;24967;51.154;13.812;2023-05-10T10:52:32;2.17;;;2.08;;
39266;SDS011;24967;51.154;13.812;2023-05-10T10:55:01;3.58;;;2.20;;
39266;SDS011;24967;51.154;13.812;2023-05-10T10:57:31;5.15;;;2.30;;
39266;SDS011;24967;51.154;13.812;2023-05-10T11:03:04;3.10;;;2.08;;
39266;SDS011;24967;51.154;13.812;2023-05-10T11:05:36;3.08;;;2.22;;
39266;SDS011;24967;51.154;13.812;2023-05-10T11:08:12;2.03;;;1.88;;
39266;SDS011;24967;51.154;13.812;2023-05-10T11:10:53;1.98;;;1.85;;
39266;SDS011;24967;51.154;13.812;2023-05-10T11:13:29;3.08;;;2.05;;
39266;SDS011;24967;51.154;13.812;2023-05-10T11:15:57;2.15;;;2.05;;
39266;SDS011;24967;51.154;13.812;2023-05-10T11:18:26;2.88;;;1.98;;
39266;SDS011;24967;51.154;13.812;2023-05-10T11:20:55;2.20;;;2.10;;
39266;SDS011;24967;51.154;13.812;2023-05-10T11:23:23;2.80;;;2.15;;
39266;SDS011;24967;51.154;13.812;2023-05-10T11:25:50;2.72;;;2.53;;
39266;SDS011;24967;51.154;13.812;2023-05-10T11:28:16;2.20;;;2.10;;
39266;SDS011;24967;51.154;13.812;2023-05-10T11:30:43;1.92;;;1.83;;
39266;SDS011;24967;51.154;13.812;2023-05-10T11:33:14;2.50;;;2.40;;
39266;SDS011;24967;51.154;13.812;2023-05-10T11:35:43;2.17;;;1.95;;
39266;SDS011;24967;51.154;13.812;2023-05-10T11:38:10;1.90;;;1.80;;
39266;SDS011;24967;51.154;13.812;2023-05-10T11:40:38;1.98;;;1.88;;
39266;SDS011;24967;51.154;13.812;2023-05-10T11:43:05;2.28;;;2.17;;
39266;SDS011;24967;51.154;13.812;2023-05-10T11:45:32;2.08;;;1.98;;
39266;SDS011;24967;51.154;13.812;2023-05-10T11:47:59;2.22;;;2.03;;
39266;SDS011;24967;51.154;13.812;2023-05-10T11:50:25;2.75;;;2.33;;
39266;SDS011;24967;51.154;13.812;2023-05-10T11:52:54;2.85;;;1.90;;
39266;SDS011;24967;51.154;13.812;2023-05-10T11:55:22;1.70;;;1.60;;
39266;SDS011;24967;51.154;13.812;2023-05-10T11:57:51;3.67;;;2.08;;
39266;SDS011;24967;51.154;13.812;2023-05-10T12:00:17;2.03;;;1.70;;
39266;SDS011;24967;51.154;13.812;2023-05-10T12:02:44;2.38;;;2.13;;
39266;SDS011;24967;51.154;13.812;2023-05-10T12:05:11;3.17;;;1.65;;
39266;SDS011;24967;51.154;13.812;2023-05-10T12:07:38;2.00;;;1.75;;
39266;SDS011;24967;51.154;13.812;2023-05-10T12:10:07;2.38;;;2.15;;
39266;SDS011;24967;51.154;13.812;2023-05-10T12:12:36;2.47;;;2.17;;
39266;SDS011;24967;51.154;13.812;2023-05-10T12:15:04;2.60;;;1.75;;
39266;SDS011;24967;51.154;13.812;2023-05-10T12:17:32;2.60;;;2.35;;
39266;SDS011;24967;51.154;13.812;2023-05-10T12:19:59;2.30;;;2.05;;
39266;SDS011;24967;51.154;13.812;2023-05-10T12:22:38;2.13;;;1.93;;
39266;SDS011;24967;51.154;13.812;2023-05-10T12:25:07;3.53;;;2.10;;
39266;SDS011;24967;51.154;13.812;2023-05-10T12:27:34;2.20;;;2.00;;
39266;SDS011;24967;51.154;13.812;2023-05-10T12:30:01;2.40;;;2.15;;
39266;SDS011;24967;51.154;13.812;2023-05-10T12:32:37;2.28;;;2.15;;
39266;SDS011;24967;51.154;13.812;2023-05-10T12:35:04;4.97;;;2.38;;
39266;SDS011;24967;51.154;13.812;2023-05-10T12:37:33;1.80;;;1.70;;
39266;SDS011;24967;51.154;13.812;2023-05-10T12:40:04;1.90;;;1.67;;
39266;SDS011;24967;51.154;13.812;2023-05-10T12:45:01;1.70;;;1.60;;
39266;SDS011;24967;51.154;13.812;2023-05-10T12:47:28;3.72;;;1.90;;
39266;SDS011;24967;51.154;13.812;2023-05-10T12:49:54;4.57;;;2.22;;
39266;SDS011;24967;51.154;13.812;2023-05-10T12:52:21;2.38;;;2.28;;
39266;SDS011;24967;51.154;13.812;2023-05-10T12:54:47;2.92;;;2.33;;
39266;SDS011;24967;51.154;13.812;2023-05-10T12:57:16;2.20;;;2.00;;
39266;SDS011;24967;51.154;13.812;2023-05-10T12:59:43;2.50;;;2.30;;
39266;SDS011;24967;51.154;13.812;2023-05-10T13:02:09;3.00;;;1.88;;
39266;SDS011;24967;51.154;13.812;2023-05-10T13:04:36;2.85;;;2.15;;
39266;SDS011;24967;51.154;13.812;2023-05-10T13:07:04;2.35;;;2.05;;
39266;SDS011;24967;51.154;13.812;2023-05-10T13:09:31;2.20;;;2.03;;
39266;SDS011;24967;51.154;13.812;2023-05-10T13:11:57;2.40;;;2.25;;
39266;SDS011;24967;51.154;13.812;2023-05-10T13:14:25;2.05;;;1.95;;
39266;SDS011;24967;51.154;13.812;2023-05-10T13:16:52;2.72;;;2.05;;
39266;SDS011;24967;51.154;13.812;2023-05-10T13:19:18;2.15;;;2.05;;
39266;SDS011;24967;51.154;13.812;2023-05-10T13:21:45;2.33;;;2.13;;
39266;SDS011;24967;51.154;13.812;2023-05-10T13:24:12;3.65;;;2.13;;
39266;SDS011;24967;51.154;13.812;2023-05-10T13:26:39;1.88;;;1.77;;
39266;SDS011;24967;51.154;13.812;2023-05-10T13:29:06;1.92;;;1.83;;
39266;SDS011;24967;51.154;13.812;2023-05-10T13:31:34;2.88;;;2.20;;
39266;SDS011;24967;51.154;13.812;2023-05-10T13:34:01;2.30;;;2.00;;
39266;SDS011;24967;51.154;13.812;2023-05-10T13:36:27;5.63;;;2.28;;
39266;SDS011;24967;51.154;13.812;2023-05-10T13:38:53;2.67;;;2.22;;
39266;SDS011;24967;51.154;13.812;2023-05-10T13:41:20;5.43;;;2.47;;
39266;SDS011;24967;51.154;13.812;2023-05-10T13:43:47;2.22;;;2.03;;
39266;SDS011;24967;51.154;13.812;2023-05-10T13:46:13;2.90;;;1.90;;
39266;SDS011;24967;51.154;13.812;2023-05-10T13:48:41;2.17;;;2.00;;
39266;SDS011;24967;51.154;13.812;2023-05-10T13:51:08;4.32;;;2.30;;
39266;SDS011;24967;51.154;13.812;2023-05-10T13:53:34;2.60;;;2.30;;
39266;SDS011;24967;51.154;13.812;2023-05-10T13:56:01;3.38;;;2.05;;
39266;SDS011;24967;51.154;13.812;2023-05-10T13:58:28;2.58;;;2.10;;
39266;SDS011;24967;51.154;13.812;2023-05-10T14:00:55;3.08;;;2.10;;
39266;SDS011;24967;51.154;13.812;2023-05-10T14:03:22;2.45;;;2.22;;
39266;SDS011;24967;51.154;13.812;2023-05-10T14:05:49;3.17;;;2.40;;
39266;SDS011;24967;51.154;13.812;2023-05-10T14:08:16;2.47;;;2.03;;
39266;SDS011;24967;51.154;13.812;2023-05-10T14:10:42;2.30;;;2.10;;
39266;SDS011;24967;51.154;13.812;2023-05-10T14:13:09;4.70;;;2.50;;
39266;SDS011;24967;51.154;13.812;2023-05-10T14:15:35;2.47;;;2.30;;
39266;SDS011;24967;51.154;13.812;2023-05-10T14:18:02;3.22;;;2.80;;
39266;SDS011;24967;51.154;13.812;2023-05-10T14:20:28;7.72;;;2.60;;
39266;SDS011;24967;51.154;13.812;2023-05-10T14:22:56;3.97;;;2.83;;
39266;SDS011;24967;51.154;13.812;2023-05-10T14:25:23;2.92;;;2.40;;
39266;SDS011;24967;51.154;13.812;2023-05-10T14:27:49;3.53;;;2.58;;
39266;SDS011;24967;51.154;13.812;2023-05-10T14:30:16;4.47;;;2.70;;
39266;SDS011;24967;51.154;13.812;2023-05-10T14:32:42;3.05;;;2.67;;
39266;SDS011;24967;51.154;13.812;2023-05-10T14:35:09;2.58;;;2.42;;
39266;SDS011;24967;51.154;13.812;2023-05-10T14:37:35;2.65;;;2.45;;
39266;SDS011;24967;51.154;13.812;2023-05-10T14:40:04;3.75;;;2.90;;
39266;SDS011;24967;51.154;13.812;2023-05-10T14:42:32;4.13;;;3.00;;
39266;SDS011;24967;51.154;13.812;2023-05-10T14:44:58;3.85;;;2.38;;
39266;SDS011;24967;51.154;13.812;2023-05-10T14:47:24;2.95;;;2.10;;
39266;SDS011;24967;51.154;13.812;2023-05-10T14:49:51;2.85;;;2.28;;
39266;SDS011;24967;51.154;13.812;2023-05-10T14:52:17;2.38;;;2.22;;